• Join FlightAware (Why Join?)
  • Login
  • US Flag 
09:35PM EDT


 

Airport Tracker/Info


-or-


 

Live Flight TrackerFlight Track Log ✈ UAL252 ✈ 01-May-2013 ✈ KDEN - KBIL

Flight Track Log - Related Links

Times and Time Zones

All times are in EDT time to prevent confusion due to time zone crossing. See the UAL252 flight status page for this flight to view local times or setup timezone preferences in your user account.

Time Position Orientation Groundspeed Altitude Reporting Facility
EDT Latitude Longitude Course Direction KTS MPH feet Rate Location/Type
08:06PM 39.9000 -104.7500 344° North 216 249 7,800  Level Denver TRACON
08:07PM 39.9667 -104.7667 349° North 273 314 9,700 1,680 Climbing Denver TRACON
08:08PM 39.9883 -104.7767 341° North 279 321 10,000 1,260 Climbing Denver Center
08:09PM 40.2520 -104.7906 347° North  Level FlightAware Approximate
08:09PM 40.0822 -104.7828 357° North 334 384 11,500  Level Denver Center
08:10PM 40.3524 -104.8236 345° North  Level FlightAware Approximate
08:10PM 40.1819 -104.7922 356° North 358 412 15,300  Level Denver Center
08:11PM 40.4520 -104.8598 345° North  Level FlightAware Approximate
08:11PM 40.3261 -104.8064 356° North 404 465 19,600  Level Denver Center
08:12PM 40.5517 -104.8964 344° North  Level FlightAware Approximate
08:12PM 40.4389 -104.8169 356° North 404 465 22,100  Level Denver Center
08:13PM 40.5464 -104.8297 355° North 446 513 22,900 1,500 Climbing Denver Center
08:14PM 40.7086 -104.8447 356° North 511 588 25,200 2,160 Climbing Denver Center
08:15PM 40.8450 -104.8761 350° North 494 568 27,400 1,920 Climbing Denver Center
08:16PM 40.9969 -104.9544 339° North 496 571 29,200 1,500 Climbing Denver Center
08:17PM 41.1181 -105.0119 340° North 483 556 30,500 960 Climbing Denver Center
08:18PM 41.2408 -105.0739 339° North 490 564 31,200 1,320 Climbing Denver Center
08:19PM 41.3800 -105.1431 340° North 478 550 33,300 1,320 Climbing Denver Center
08:20PM 41.4972 -105.2003 340° North 470 541 34,000 900 Climbing Denver Center
08:21PM 41.6314 -105.2836 335° Northwest 471 542 35,200 900 Climbing Denver Center
08:22PM 41.7397 -105.3656 331° Northwest 467 537 35,900 360 Climbing Denver Center
08:23PM 41.8667 -105.4597 331° Northwest 467 537 36,000  Climbing Denver Center
08:24PM 41.9769 -105.5414 331° Northwest 470 541 36,000  Level Denver Center
08:25PM 42.0844 -105.6228 331° Northwest 463 533 36,000  Level Denver Center
08:26PM 42.2094 -105.7161 331° Northwest 461 531 36,000  Level Denver Center
08:27PM 42.3153 -105.7958 331° Northwest 456 525 36,000  Level Denver Center
08:29PM 42.4403 -105.8917 331° Northwest 459 528 36,000  Level Denver Center
08:30PM 42.5481 -105.9725 331° Northwest 461 531 36,000  Level Denver Center
08:31PM 42.6717 -106.0678 330° Northwest 457 526 36,000  Level Denver Center
08:32PM 42.7792 -106.1489 331° Northwest 459 528 36,000  Level Denver Center
08:33PM 42.8836 -106.2319 330° Northwest 455 524 36,000  Level Denver Center
08:34PM 43.0058 -106.3253 331° Northwest 450 518 36,000  Level Denver Center
08:35PM 43.1094 -106.4061 330° Northwest 449 517 36,000  Level Denver Center
08:36PM 43.2464 -106.5139 330° Northwest 444 511 36,000  Level Denver Center
08:37PM 43.3500 -106.5942 331° Northwest 445 512 36,000  Level Denver Center
08:38PM 43.4517 -106.6736 330° Northwest 439 505 36,000  Level Denver Center
08:39PM 43.5708 -106.7681 330° Northwest 440 506 36,000  Level Denver Center
08:40PM 43.6883 -106.8608 330° Northwest 436 502 36,000 -120 Level Denver Center
08:40PM 43.7047 -106.8758 327° Northwest 435 501 35,900  Descending Salt Lake Center
08:41PM 43.8164 -106.9694 329° Northwest 435 501 36,000  Climbing Salt Lake Center
08:42PM 43.9178 -107.0486 331° Northwest 436 502 36,000  Level Salt Lake Center
08:43PM 44.0372 -107.1428 330° Northwest 440 506 36,000  Level Salt Lake Center
08:44PM 44.1228 -107.2100 331° Northwest 440 506 36,000  Level Denver Center
08:44PM 44.1383 -107.2247 326° Northwest 437 503 36,000  Level Salt Lake Center
08:45PM 44.2553 -107.3206 330° Northwest 434 499 36,000 -540 Level Salt Lake Center
08:47PM 44.3536 -107.4008 330° Northwest 428 493 34,900 -1,800 Descending Salt Lake Center
08:48PM 44.4694 -107.4950 330° Northwest 430 495 32,400 -2,280 Descending Salt Lake Center
08:49PM 44.5681 -107.5753 330° Northwest 429 494 30,300 -2,280 Descending Salt Lake Center
08:50PM 44.6819 -107.6694 330° Northwest 426 490 27,800 -2,460 Descending Salt Lake Center
08:51PM 44.7753 -107.7469 329° Northwest 413 475 25,300 -2,580 Descending Salt Lake Center
08:52PM 44.8778 -107.8308 330° Northwest 394 453 22,500 -2,520 Descending Salt Lake Center
08:53PM 44.9647 -107.9025 330° Northwest 386 444 20,200 -2,280 Descending Salt Lake Center
08:54PM 45.0633 -107.9856 329° Northwest 377 434 17,900 -2,100 Descending Salt Lake Center
08:55PM 45.1561 -108.0664 328° Northwest 379 436 16,000 -960 Descending Salt Lake Center
08:56PM 45.2489 -108.1444 329° Northwest 391 450 16,000 -720 Level Salt Lake Center
08:57PM 45.3472 -108.1953 340° North 381 438 14,600 -2,040 Descending Salt Lake Center
08:58PM 45.4500 -108.2458 341° North 366 421 11,900 -2,220 Descending Salt Lake Center
08:59PM 45.5403 -108.2892 341° North 350 403 10,100 -1,380 Descending Salt Lake Center
09:00PM 45.6242 -108.3269 343° North 295 339 9,100 -720 Descending Salt Lake Center
09:01PM 45.6911 -108.3519 345° North 246 283 8,700 -420 Descending Salt Lake Center